Saint George's, Canada
Current Conditions -  °F | °C
As of 11:00 PM on Saturday 25 Oct 2014 (Local Time) from CYJT Reporting Station
Overcast Overcast  
Wind Chill: 35°   Ceiling: 2300
Heat Index: 43°   Visibility: 15mi
Dew Point: 37°   Wind: 18mph
Humidity: 81%   Direction: 70°ENE
Pressure: 29.53"   Gusts: 30mph
Location:  48.43°N, 58.5°W
Report Text: CYJT 260100Z 07016G26KT 15SM OVC023 06/03 A2953 RMK SC8 SLP002
Loading
Personal Weather Stations






























Interactive Weather Map New forecast layout! Learn more

10-Day Weather Forecast

Advertisements
Track Severe Weather on mobile